Sonny — WDG5366 — position and weather

sailwx.info

Track history (hours):
 
Tides and Currents Weather Stations Pressure Air Temp Water Temp Dewpoint Dewpoint Depression Visibility Wind Speed Wind Dir Waves Ship Positions

Sonny

Owner: Biscayne Towing & Salvage, Inc., Miami, FL. More information available from US FCC via Universal Licensing System and Coast Guard Vessel Documentation Center.

Last reported at 2018-May-24 23:02 UTC. Time now 2018-May-25 06:48 UTC.
Position N 25°47' W 080°12'.

; draft 2.5 m.

Type: Towing. MMSI: 366931000.

Date/timePositionNaut miles runAvg speedWind from/ knotsBaromVisibWave heightAir tempDewpointWater temp
2018-May-24 23:02N 25°47' W 080°12'0 0.0
2018-May-24 23:00N 25°47' W 080°12'3 5.3
2018-May-24 22:31N 25°46' W 080°09'4 6.9
2018-May-24 21:58N 25°49' W 080°07'4 8.8
2018-May-24 21:30N 25°53' W 080°06'4 8.5
2018-May-24 21:00N 25°57' W 080°06'4 8.5
2018-May-24 20:30N 26°01' W 080°06'4 8.1
2018-May-24 20:00N 26°05' W 080°05'2 3.4
2018-May-24 19:31N 26°06' W 080°07'2 4.1
2018-May-24 19:00N 26°05' W 080°04'0 0.8
2018-May-24 18:30N 26°05' W 080°04'2 3.2
2018-May-24 18:00N 26°03' W 080°04'4 7.1
2018-May-24 17:29N 25°59' W 080°03'4 7.9
2018-May-24 17:00N 25°56' W 080°04'4 8.3
2018-May-24 16:30N 25°51' W 080°04'4 7.8
2018-May-24 16:00N 25°48' W 080°05'3 6.1
2018-May-24 15:31N 25°46' W 080°07'1 2.1
2018-May-24 15:01N 25°45' W 080°09'3 5.4
2018-May-24 14:31N 25°46' W 080°12'1 1.3
2018-May-24 14:00N 25°47' W 080°12'0 0.0
2018-May-22 16:55N 25°47' W 080°12'1 2.6
2018-May-22 16:30N 25°46' W 080°11'1 2.4
2018-May-22 16:00N 25°47' W 080°10'0 0.5
2018-May-22 15:29N 25°46' W 080°10'0 0.9
2018-May-22 15:00N 25°46' W 080°09'1 1.9
2018-May-22 14:30N 25°46' W 080°08'1 2.8
2018-May-22 14:00N 25°46' W 080°07'2 3.0
2018-May-22 13:30N 25°47' W 080°05'2 3.5
2018-May-22 12:59N 25°46' W 080°07'2 3.1
2018-May-22 12:27N 25°46' W 080°09'0 0.2
2018-May-22 12:00N 25°46' W 080°09'1 2.7
2018-May-22 11:30N 25°46' W 080°10'  
2018-May-19 15:14N 25°47' W 080°12'0 0.0
2018-May-19 15:00N 25°47' W 080°12'  
Track history (hours):
 
Tides and Currents Weather Stations Pressure Air Temp Water Temp Dewpoint Dewpoint Depression Visibility Wind Speed Wind Dir Waves Ship Positions

Sonny

Owner: Biscayne Towing & Salvage, Inc., Miami, FL. More information available from US FCC via Universal Licensing System and Coast Guard Vessel Documentation Center.

Last reported at 2018-May-24 23:02 UTC. Time now 2018-May-25 06:48 UTC.
Position N 25°47' W 080°12'.

; draft 2.5 m.

Type: Towing. MMSI: 366931000.

Date/timePositionNaut miles runAvg speedWind from/ knotsBaromVisibWave heightAir tempDewpointWater temp
2018-May-24 23:02N 25°47' W 080°12'0 0.0
2018-May-24 23:00N 25°47' W 080°12'3 5.3
2018-May-24 22:31N 25°46' W 080°09'4 6.9
2018-May-24 21:58N 25°49' W 080°07'4 8.8
2018-May-24 21:30N 25°53' W 080°06'4 8.5
2018-May-24 21:00N 25°57' W 080°06'4 8.5
2018-May-24 20:30N 26°01' W 080°06'4 8.1
2018-May-24 20:00N 26°05' W 080°05'2 3.4
2018-May-24 19:31N 26°06' W 080°07'2 4.1
2018-May-24 19:00N 26°05' W 080°04'0 0.8
2018-May-24 18:30N 26°05' W 080°04'2 3.2
2018-May-24 18:00N 26°03' W 080°04'4 7.1
2018-May-24 17:29N 25°59' W 080°03'4 7.9
2018-May-24 17:00N 25°56' W 080°04'4 8.3
2018-May-24 16:30N 25°51' W 080°04'4 7.8
2018-May-24 16:00N 25°48' W 080°05'3 6.1
2018-May-24 15:31N 25°46' W 080°07'1 2.1
2018-May-24 15:01N 25°45' W 080°09'3 5.4
2018-May-24 14:31N 25°46' W 080°12'1 1.3
2018-May-24 14:00N 25°47' W 080°12'0 0.0
2018-May-22 16:55N 25°47' W 080°12'1 2.6
2018-May-22 16:30N 25°46' W 080°11'1 2.4
2018-May-22 16:00N 25°47' W 080°10'0 0.5
2018-May-22 15:29N 25°46' W 080°10'0 0.9
2018-May-22 15:00N 25°46' W 080°09'1 1.9
2018-May-22 14:30N 25°46' W 080°08'1 2.8
2018-May-22 14:00N 25°46' W 080°07'2 3.0
2018-May-22 13:30N 25°47' W 080°05'2 3.5
2018-May-22 12:59N 25°46' W 080°07'2 3.1
2018-May-22 12:27N 25°46' W 080°09'0 0.2
2018-May-22 12:00N 25°46' W 080°09'1 2.7
2018-May-22 11:30N 25°46' W 080°10'  
2018-May-19 15:14N 25°47' W 080°12'0 0.0
2018-May-19 15:00N 25°47' W 080°12'  

Dump ship's entire track history